sensor_id;sensor_type;location;lat;lon;timestamp;P1;durP1;ratioP1;P2;durP2;ratioP2
17710;SDS011;8975;57.718;12.134;2022-12-29T00:01:22;500.25;;;0.10;;
17710;SDS011;8975;57.718;12.134;2022-12-29T00:03:48;502.80;;;0.10;;
17710;SDS011;8975;57.718;12.134;2022-12-29T00:06:13;498.15;;;0.10;;
17710;SDS011;8975;57.718;12.134;2022-12-29T00:08:38;500.37;;;0.10;;
17710;SDS011;8975;57.718;12.134;2022-12-29T00:11:07;500.83;;;0.10;;
17710;SDS011;8975;57.718;12.134;2022-12-29T00:13:37;501.27;;;0.10;;
17710;SDS011;8975;57.718;12.134;2022-12-29T00:16:21;501.40;;;0.10;;
17710;SDS011;8975;57.718;12.134;2022-12-29T00:18:47;503.77;;;0.10;;
17710;SDS011;8975;57.718;12.134;2022-12-29T00:21:13;502.20;;;0.10;;
17710;SDS011;8975;57.718;12.134;2022-12-29T00:23:59;501.02;;;0.10;;
17710;SDS011;8975;57.718;12.134;2022-12-29T00:26:43;500.77;;;0.10;;
17710;SDS011;8975;57.718;12.134;2022-12-29T00:29:27;498.87;;;0.10;;
17710;SDS011;8975;57.718;12.134;2022-12-29T00:32:11;497.63;;;0.10;;
17710;SDS011;8975;57.718;12.134;2022-12-29T00:35:07;500.05;;;0.10;;
17710;SDS011;8975;57.718;12.134;2022-12-29T00:37:45;499.88;;;0.10;;
17710;SDS011;8975;57.718;12.134;2022-12-29T00:40:31;500.45;;;0.10;;
17710;SDS011;8975;57.718;12.134;2022-12-29T00:43:35;503.13;;;0.10;;
17710;SDS011;8975;57.718;12.134;2022-12-29T00:46:19;503.38;;;0.10;;
17710;SDS011;8975;57.718;12.134;2022-12-29T00:48:45;505.50;;;0.10;;
17710;SDS011;8975;57.718;12.134;2022-12-29T00:51:29;503.25;;;0.10;;
17710;SDS011;8975;57.718;12.134;2022-12-29T00:53:54;504.60;;;0.10;;
17710;SDS011;8975;57.718;12.134;2022-12-29T00:56:20;503.60;;;0.10;;
17710;SDS011;8975;57.718;12.134;2022-12-29T00:58:45;503.93;;;0.10;;
17710;SDS011;8975;57.718;12.134;2022-12-29T01:01:11;505.70;;;0.10;;
17710;SDS011;8975;57.718;12.134;2022-12-29T01:03:39;506.35;;;0.10;;
17710;SDS011;8975;57.718;12.134;2022-12-29T01:06:09;506.45;;;0.10;;
17710;SDS011;8975;57.718;12.134;2022-12-29T01:08:35;504.65;;;0.10;;
17710;SDS011;8975;57.718;12.134;2022-12-29T01:11:08;506.88;;;0.10;;
17710;SDS011;8975;57.718;12.134;2022-12-29T01:13:35;506.45;;;0.10;;
17710;SDS011;8975;57.718;12.134;2022-12-29T01:16:03;511.23;;;0.20;;
17710;SDS011;8975;57.718;12.134;2022-12-29T01:18:29;505.63;;;0.10;;
17710;SDS011;8975;57.718;12.134;2022-12-29T01:21:02;508.60;;;0.10;;
17710;SDS011;8975;57.718;12.134;2022-12-29T01:23:30;511.10;;;0.10;;
17710;SDS011;8975;57.718;12.134;2022-12-29T01:25:56;509.07;;;0.20;;
17710;SDS011;8975;57.718;12.134;2022-12-29T01:28:22;509.20;;;0.20;;
17710;SDS011;8975;57.718;12.134;2022-12-29T01:30:48;511.20;;;0.20;;
17710;SDS011;8975;57.718;12.134;2022-12-29T01:33:13;514.43;;;0.20;;
17710;SDS011;8975;57.718;12.134;2022-12-29T01:35:39;513.60;;;0.20;;
17710;SDS011;8975;57.718;12.134;2022-12-29T01:38:04;510.55;;;0.20;;
17710;SDS011;8975;57.718;12.134;2022-12-29T01:40:30;514.97;;;0.20;;
17710;SDS011;8975;57.718;12.134;2022-12-29T01:42:55;517.35;;;0.20;;
17710;SDS011;8975;57.718;12.134;2022-12-29T01:45:21;515.78;;;0.20;;
17710;SDS011;8975;57.718;12.134;2022-12-29T01:47:57;516.60;;;0.20;;
17710;SDS011;8975;57.718;12.134;2022-12-29T01:50:27;517.17;;;0.20;;
17710;SDS011;8975;57.718;12.134;2022-12-29T01:52:59;514.65;;;0.20;;
17710;SDS011;8975;57.718;12.134;2022-12-29T01:55:36;519.00;;;0.20;;
17710;SDS011;8975;57.718;12.134;2022-12-29T01:58:07;516.60;;;0.20;;
17710;SDS011;8975;57.718;12.134;2022-12-29T02:00:36;516.45;;;0.20;;
17710;SDS011;8975;57.718;12.134;2022-12-29T02:03:02;517.05;;;0.20;;
17710;SDS011;8975;57.718;12.134;2022-12-29T02:08:04;518.08;;;0.20;;
17710;SDS011;8975;57.718;12.134;2022-12-29T02:10:30;518.92;;;0.20;;
17710;SDS011;8975;57.718;12.134;2022-12-29T02:12:58;519.20;;;0.20;;
17710;SDS011;8975;57.718;12.134;2022-12-29T02:15:41;520.97;;;0.20;;
17710;SDS011;8975;57.718;12.134;2022-12-29T02:18:25;519.17;;;0.20;;
17710;SDS011;8975;57.718;12.134;2022-12-29T02:24:23;516.70;;;0.20;;
17710;SDS011;8975;57.718;12.134;2022-12-29T02:37:31;519.03;;;0.20;;
17710;SDS011;8975;57.718;12.134;2022-12-29T02:40:16;518.65;;;0.20;;
17710;SDS011;8975;57.718;12.134;2022-12-29T02:45:53;517.90;;;0.20;;
17710;SDS011;8975;57.718;12.134;2022-12-29T02:50:50;518.60;;;0.20;;
17710;SDS011;8975;57.718;12.134;2022-12-29T02:53:22;519.28;;;0.20;;
17710;SDS011;8975;57.718;12.134;2022-12-29T02:56:08;519.00;;;0.20;;
17710;SDS011;8975;57.718;12.134;2022-12-29T02:58:34;519.77;;;0.20;;
17710;SDS011;8975;57.718;12.134;2022-12-29T03:04:38;522.90;;;0.20;;
17710;SDS011;8975;57.718;12.134;2022-12-29T03:07:20;518.85;;;0.20;;
17710;SDS011;8975;57.718;12.134;2022-12-29T03:16:01;521.00;;;0.20;;
17710;SDS011;8975;57.718;12.134;2022-12-29T03:18:47;519.28;;;0.20;;
17710;SDS011;8975;57.718;12.134;2022-12-29T03:24:47;518.55;;;0.20;;
17710;SDS011;8975;57.718;12.134;2022-12-29T03:27:22;519.08;;;0.20;;
17710;SDS011;8975;57.718;12.134;2022-12-29T03:29:54;519.87;;;0.20;;
17710;SDS011;8975;57.718;12.134;2022-12-29T03:32:23;518.80;;;0.20;;
17710;SDS011;8975;57.718;12.134;2022-12-29T03:34:53;522.22;;;0.20;;
17710;SDS011;8975;57.718;12.134;2022-12-29T03:37:23;518.05;;;0.20;;
17710;SDS011;8975;57.718;12.134;2022-12-29T03:39:53;519.55;;;0.20;;
17710;SDS011;8975;57.718;12.134;2022-12-29T03:42:20;520.13;;;0.20;;
17710;SDS011;8975;57.718;12.134;2022-12-29T03:44:48;519.65;;;0.20;;
17710;SDS011;8975;57.718;12.134;2022-12-29T03:47:20;518.78;;;0.20;;
17710;SDS011;8975;57.718;12.134;2022-12-29T03:49:45;518.85;;;0.20;;
17710;SDS011;8975;57.718;12.134;2022-12-29T03:52:12;519.40;;;0.20;;
17710;SDS011;8975;57.718;12.134;2022-12-29T03:54:37;520.67;;;0.20;;
17710;SDS011;8975;57.718;12.134;2022-12-29T03:57:02;521.50;;;0.20;;
17710;SDS011;8975;57.718;12.134;2022-12-29T03:59:28;521.43;;;0.20;;
17710;SDS011;8975;57.718;12.134;2022-12-29T04:01:53;522.60;;;0.20;;
17710;SDS011;8975;57.718;12.134;2022-12-29T04:04:19;519.95;;;0.20;;
17710;SDS011;8975;57.718;12.134;2022-12-29T04:06:44;522.47;;;0.20;;
17710;SDS011;8975;57.718;12.134;2022-12-29T04:09:09;520.47;;;0.20;;
17710;SDS011;8975;57.718;12.134;2022-12-29T04:11:35;520.83;;;0.20;;
17710;SDS011;8975;57.718;12.134;2022-12-29T04:14:01;521.60;;;0.20;;
17710;SDS011;8975;57.718;12.134;2022-12-29T04:16:26;520.57;;;0.20;;
17710;SDS011;8975;57.718;12.134;2022-12-29T04:18:52;521.35;;;0.20;;
17710;SDS011;8975;57.718;12.134;2022-12-29T04:21:17;510.20;;;0.20;;
17710;SDS011;8975;57.718;12.134;2022-12-29T04:23:43;512.43;;;0.20;;
17710;SDS011;8975;57.718;12.134;2022-12-29T04:26:09;513.03;;;0.20;;
17710;SDS011;8975;57.718;12.134;2022-12-29T04:28:35;507.13;;;0.20;;
17710;SDS011;8975;57.718;12.134;2022-12-29T04:31:01;503.98;;;0.10;;
17710;SDS011;8975;57.718;12.134;2022-12-29T04:33:28;504.35;;;0.10;;
17710;SDS011;8975;57.718;12.134;2022-12-29T04:35:53;503.80;;;0.10;;
17710;SDS011;8975;57.718;12.134;2022-12-29T04:38:19;502.73;;;0.15;;
17710;SDS011;8975;57.718;12.134;2022-12-29T04:40:47;505.37;;;0.20;;
17710;SDS011;8975;57.718;12.134;2022-12-29T04:43:13;503.75;;;0.20;;
17710;SDS011;8975;57.718;12.134;2022-12-29T04:45:47;507.38;;;0.20;;
17710;SDS011;8975;57.718;12.134;2022-12-29T04:48:13;505.35;;;0.20;;
17710;SDS011;8975;57.718;12.134;2022-12-29T04:50:39;517.03;;;0.20;;
17710;SDS011;8975;57.718;12.134;2022-12-29T04:53:05;518.95;;;0.20;;
17710;SDS011;8975;57.718;12.134;2022-12-29T04:55:31;522.47;;;0.20;;
17710;SDS011;8975;57.718;12.134;2022-12-29T04:57:56;520.03;;;0.20;;
17710;SDS011;8975;57.718;12.134;2022-12-29T05:00:22;519.70;;;0.20;;
17710;SDS011;8975;57.718;12.134;2022-12-29T05:02:47;523.83;;;0.20;;
17710;SDS011;8975;57.718;12.134;2022-12-29T05:05:13;523.40;;;0.20;;
17710;SDS011;8975;57.718;12.134;2022-12-29T05:07:38;524.15;;;0.20;;
17710;SDS011;8975;57.718;12.134;2022-12-29T05:10:04;523.05;;;0.20;;
17710;SDS011;8975;57.718;12.134;2022-12-29T05:12:31;521.33;;;0.20;;
17710;SDS011;8975;57.718;12.134;2022-12-29T05:14:57;522.78;;;0.20;;
17710;SDS011;8975;57.718;12.134;2022-12-29T05:17:23;520.10;;;0.20;;
17710;SDS011;8975;57.718;12.134;2022-12-29T05:19:48;522.25;;;0.20;;
17710;SDS011;8975;57.718;12.134;2022-12-29T05:22:14;521.17;;;0.20;;
17710;SDS011;8975;57.718;12.134;2022-12-29T05:24:39;517.80;;;0.20;;
17710;SDS011;8975;57.718;12.134;2022-12-29T05:27:05;524.10;;;0.20;;
17710;SDS011;8975;57.718;12.134;2022-12-29T05:29:30;518.37;;;0.20;;
17710;SDS011;8975;57.718;12.134;2022-12-29T05:31:56;517.73;;;0.20;;
17710;SDS011;8975;57.718;12.134;2022-12-29T05:34:21;505.00;;;0.20;;
17710;SDS011;8975;57.718;12.134;2022-12-29T05:36:47;515.27;;;0.20;;
17710;SDS011;8975;57.718;12.134;2022-12-29T05:39:12;508.33;;;0.20;;
17710;SDS011;8975;57.718;12.134;2022-12-29T05:41:37;503.97;;;0.20;;
17710;SDS011;8975;57.718;12.134;2022-12-29T05:44:03;501.63;;;0.10;;
17710;SDS011;8975;57.718;12.134;2022-12-29T05:46:28;503.30;;;0.20;;
17710;SDS011;8975;57.718;12.134;2022-12-29T05:48:54;507.17;;;0.20;;
17710;SDS011;8975;57.718;12.134;2022-12-29T05:51:19;506.83;;;0.10;;
17710;SDS011;8975;57.718;12.134;2022-12-29T05:53:45;506.23;;;0.20;;
17710;SDS011;8975;57.718;12.134;2022-12-29T05:56:10;507.50;;;0.20;;
17710;SDS011;8975;57.718;12.134;2022-12-29T05:58:35;505.77;;;0.20;;
17710;SDS011;8975;57.718;12.134;2022-12-29T06:01:01;504.53;;;0.10;;
17710;SDS011;8975;57.718;12.134;2022-12-29T06:03:26;511.60;;;0.10;;
17710;SDS011;8975;57.718;12.134;2022-12-29T06:05:52;506.03;;;0.10;;
17710;SDS011;8975;57.718;12.134;2022-12-29T06:08:17;504.60;;;0.10;;
17710;SDS011;8975;57.718;12.134;2022-12-29T06:10:42;506.67;;;0.20;;
17710;SDS011;8975;57.718;12.134;2022-12-29T06:13:08;507.10;;;0.20;;
17710;SDS011;8975;57.718;12.134;2022-12-29T06:15:33;508.20;;;0.20;;
17710;SDS011;8975;57.718;12.134;2022-12-29T06:17:59;509.25;;;0.20;;
17710;SDS011;8975;57.718;12.134;2022-12-29T06:20:25;522.17;;;0.20;;
17710;SDS011;8975;57.718;12.134;2022-12-29T06:22:51;514.15;;;0.20;;
17710;SDS011;8975;57.718;12.134;2022-12-29T06:25:16;525.03;;;0.20;;
17710;SDS011;8975;57.718;12.134;2022-12-29T06:27:42;524.03;;;0.20;;
17710;SDS011;8975;57.718;12.134;2022-12-29T06:30:08;514.85;;;0.20;;
17710;SDS011;8975;57.718;12.134;2022-12-29T06:32:34;526.45;;;0.20;;
17710;SDS011;8975;57.718;12.134;2022-12-29T06:35:01;513.83;;;0.20;;
17710;SDS011;8975;57.718;12.134;2022-12-29T06:37:26;519.35;;;0.20;;
17710;SDS011;8975;57.718;12.134;2022-12-29T06:39:52;519.60;;;0.20;;
17710;SDS011;8975;57.718;12.134;2022-12-29T06:42:17;512.53;;;0.20;;
17710;SDS011;8975;57.718;12.134;2022-12-29T06:44:43;514.57;;;0.20;;
17710;SDS011;8975;57.718;12.134;2022-12-29T06:47:08;515.97;;;0.20;;
17710;SDS011;8975;57.718;12.134;2022-12-29T06:49:34;514.95;;;0.20;;
17710;SDS011;8975;57.718;12.134;2022-12-29T06:51:59;518.30;;;0.20;;
17710;SDS011;8975;57.718;12.134;2022-12-29T06:54:25;516.63;;;0.20;;
17710;SDS011;8975;57.718;12.134;2022-12-29T06:56:51;514.38;;;0.20;;
17710;SDS011;8975;57.718;12.134;2022-12-29T06:59:17;514.30;;;0.20;;
17710;SDS011;8975;57.718;12.134;2022-12-29T07:01:42;517.50;;;0.20;;
17710;SDS011;8975;57.718;12.134;2022-12-29T07:04:08;518.83;;;0.20;;
17710;SDS011;8975;57.718;12.134;2022-12-29T07:06:33;513.20;;;0.20;;
17710;SDS011;8975;57.718;12.134;2022-12-29T07:08:58;518.17;;;0.20;;
17710;SDS011;8975;57.718;12.134;2022-12-29T07:11:24;517.77;;;0.20;;
17710;SDS011;8975;57.718;12.134;2022-12-29T07:13:49;517.93;;;0.20;;
17710;SDS011;8975;57.718;12.134;2022-12-29T07:16:15;517.13;;;0.20;;
17710;SDS011;8975;57.718;12.134;2022-12-29T07:18:41;517.40;;;0.20;;
17710;SDS011;8975;57.718;12.134;2022-12-29T07:21:06;513.23;;;0.20;;
17710;SDS011;8975;57.718;12.134;2022-12-29T07:23:32;517.80;;;0.20;;
17710;SDS011;8975;57.718;12.134;2022-12-29T07:26:01;518.72;;;0.20;;
17710;SDS011;8975;57.718;12.134;2022-12-29T07:28:28;519.47;;;0.20;;
17710;SDS011;8975;57.718;12.134;2022-12-29T07:30:54;519.20;;;0.20;;
17710;SDS011;8975;57.718;12.134;2022-12-29T07:33:19;519.88;;;0.20;;
17710;SDS011;8975;57.718;12.134;2022-12-29T07:35:45;527.55;;;0.20;;
17710;SDS011;8975;57.718;12.134;2022-12-29T07:38:10;527.57;;;0.20;;
17710;SDS011;8975;57.718;12.134;2022-12-29T07:40:36;527.93;;;0.20;;
17710;SDS011;8975;57.718;12.134;2022-12-29T07:43:01;529.70;;;0.20;;
17710;SDS011;8975;57.718;12.134;2022-12-29T07:45:26;530.85;;;0.20;;
17710;SDS011;8975;57.718;12.134;2022-12-29T07:47:52;529.70;;;0.20;;
17710;SDS011;8975;57.718;12.134;2022-12-29T07:50:17;531.87;;;0.20;;
17710;SDS011;8975;57.718;12.134;2022-12-29T07:52:43;527.92;;;0.20;;
17710;SDS011;8975;57.718;12.134;2022-12-29T07:55:09;530.33;;;0.20;;
17710;SDS011;8975;57.718;12.134;2022-12-29T07:57:35;533.63;;;0.20;;
17710;SDS011;8975;57.718;12.134;2022-12-29T08:00:01;523.78;;;0.20;;
17710;SDS011;8975;57.718;12.134;2022-12-29T08:02:26;525.25;;;0.20;;
17710;SDS011;8975;57.718;12.134;2022-12-29T08:04:52;524.28;;;0.20;;
17710;SDS011;8975;57.718;12.134;2022-12-29T08:07:17;525.43;;;0.20;;
17710;SDS011;8975;57.718;12.134;2022-12-29T08:09:42;522.77;;;0.20;;
17710;SDS011;8975;57.718;12.134;2022-12-29T08:12:09;524.03;;;0.20;;
17710;SDS011;8975;57.718;12.134;2022-12-29T08:14:35;524.13;;;0.20;;
17710;SDS011;8975;57.718;12.134;2022-12-29T08:17:01;523.47;;;0.20;;
17710;SDS011;8975;57.718;12.134;2022-12-29T08:19:26;522.13;;;0.20;;
17710;SDS011;8975;57.718;12.134;2022-12-29T08:21:52;526.65;;;0.20;;
17710;SDS011;8975;57.718;12.134;2022-12-29T08:24:18;526.03;;;0.20;;
17710;SDS011;8975;57.718;12.134;2022-12-29T08:26:43;526.10;;;0.20;;
17710;SDS011;8975;57.718;12.134;2022-12-29T08:29:09;527.22;;;0.20;;
17710;SDS011;8975;57.718;12.134;2022-12-29T08:31:34;525.40;;;0.20;;
17710;SDS011;8975;57.718;12.134;2022-12-29T08:34:00;527.33;;;0.20;;
17710;SDS011;8975;57.718;12.134;2022-12-29T08:36:26;524.65;;;0.20;;
17710;SDS011;8975;57.718;12.134;2022-12-29T08:38:52;524.57;;;0.20;;
17710;SDS011;8975;57.718;12.134;2022-12-29T08:41:17;524.97;;;0.20;;
17710;SDS011;8975;57.718;12.134;2022-12-29T08:43:45;529.65;;;0.20;;
17710;SDS011;8975;57.718;12.134;2022-12-29T08:46:14;530.13;;;0.20;;
17710;SDS011;8975;57.718;12.134;2022-12-29T08:48:40;529.90;;;0.20;;
17710;SDS011;8975;57.718;12.134;2022-12-29T08:51:05;531.83;;;0.20;;
17710;SDS011;8975;57.718;12.134;2022-12-29T08:53:32;529.67;;;0.20;;
17710;SDS011;8975;57.718;12.134;2022-12-29T08:55:59;533.97;;;0.20;;
17710;SDS011;8975;57.718;12.134;2022-12-29T08:58:25;538.08;;;0.20;;
17710;SDS011;8975;57.718;12.134;2022-12-29T09:00:54;536.15;;;0.20;;
17710;SDS011;8975;57.718;12.134;2022-12-29T09:03:20;532.42;;;0.20;;
17710;SDS011;8975;57.718;12.134;2022-12-29T09:05:47;535.85;;;0.20;;
17710;SDS011;8975;57.718;12.134;2022-12-29T09:08:18;537.85;;;0.20;;
17710;SDS011;8975;57.718;12.134;2022-12-29T09:10:43;537.17;;;0.20;;
17710;SDS011;8975;57.718;12.134;2022-12-29T09:13:10;539.58;;;0.20;;
17710;SDS011;8975;57.718;12.134;2022-12-29T09:15:37;537.78;;;0.20;;
17710;SDS011;8975;57.718;12.134;2022-12-29T09:18:02;535.95;;;0.20;;
17710;SDS011;8975;57.718;12.134;2022-12-29T09:20:28;538.40;;;0.20;;
17710;SDS011;8975;57.718;12.134;2022-12-29T09:22:54;537.17;;;0.20;;
17710;SDS011;8975;57.718;12.134;2022-12-29T09:25:19;537.17;;;0.20;;
17710;SDS011;8975;57.718;12.134;2022-12-29T09:27:46;534.63;;;0.20;;
17710;SDS011;8975;57.718;12.134;2022-12-29T09:30:14;538.72;;;0.20;;
17710;SDS011;8975;57.718;12.134;2022-12-29T09:32:40;536.20;;;0.20;;
17710;SDS011;8975;57.718;12.134;2022-12-29T09:35:06;535.37;;;0.20;;
17710;SDS011;8975;57.718;12.134;2022-12-29T09:37:31;536.17;;;0.20;;
17710;SDS011;8975;57.718;12.134;2022-12-29T09:39:57;538.30;;;0.20;;
17710;SDS011;8975;57.718;12.134;2022-12-29T09:47:43;535.80;;;0.20;;
17710;SDS011;8975;57.718;12.134;2022-12-29T09:52:53;539.08;;;0.20;;
17710;SDS011;8975;57.718;12.134;2022-12-29T09:55:31;537.17;;;0.20;;
17710;SDS011;8975;57.718;12.134;2022-12-29T09:58:02;538.35;;;0.20;;
17710;SDS011;8975;57.718;12.134;2022-12-29T10:00:38;538.90;;;0.20;;
17710;SDS011;8975;57.718;12.134;2022-12-29T10:03:17;539.85;;;0.20;;
17710;SDS011;8975;57.718;12.134;2022-12-29T10:16:44;537.30;;;0.20;;
17710;SDS011;8975;57.718;12.134;2022-12-29T10:22:07;538.03;;;0.20;;
17710;SDS011;8975;57.718;12.134;2022-12-29T10:24:37;535.95;;;0.20;;
17710;SDS011;8975;57.718;12.134;2022-12-29T10:27:05;538.03;;;0.20;;
17710;SDS011;8975;57.718;12.134;2022-12-29T10:29:37;536.67;;;0.20;;
17710;SDS011;8975;57.718;12.134;2022-12-29T10:32:17;542.13;;;0.20;;
17710;SDS011;8975;57.718;12.134;2022-12-29T10:34:54;537.80;;;0.20;;
17710;SDS011;8975;57.718;12.134;2022-12-29T10:39:55;537.85;;;0.20;;
17710;SDS011;8975;57.718;12.134;2022-12-29T10:42:25;538.25;;;0.20;;
17710;SDS011;8975;57.718;12.134;2022-12-29T10:45:01;540.15;;;0.20;;
17710;SDS011;8975;57.718;12.134;2022-12-29T10:47:29;540.17;;;0.20;;
17710;SDS011;8975;57.718;12.134;2022-12-29T10:49:58;541.50;;;0.20;;
17710;SDS011;8975;57.718;12.134;2022-12-29T10:52:26;540.90;;;0.20;;
17710;SDS011;8975;57.718;12.134;2022-12-29T10:54:57;537.65;;;0.20;;
17710;SDS011;8975;57.718;12.134;2022-12-29T11:00:00;542.17;;;0.20;;
17710;SDS011;8975;57.718;12.134;2022-12-29T11:05:18;543.60;;;0.20;;
17710;SDS011;8975;57.718;12.134;2022-12-29T11:07:50;545.08;;;0.20;;
17710;SDS011;8975;57.718;12.134;2022-12-29T11:13:15;545.90;;;0.20;;
17710;SDS011;8975;57.718;12.134;2022-12-29T11:15:46;545.90;;;0.20;;
17710;SDS011;8975;57.718;12.134;2022-12-29T11:20:59;545.80;;;0.20;;
17710;SDS011;8975;57.718;12.134;2022-12-29T11:23:38;548.53;;;0.22;;
17710;SDS011;8975;57.718;12.134;2022-12-29T11:26:19;542.63;;;0.20;;
17710;SDS011;8975;57.718;12.134;2022-12-29T11:28:47;546.08;;;0.20;;
17710;SDS011;8975;57.718;12.134;2022-12-29T11:32:10;543.55;;;0.20;;
17710;SDS011;8975;57.718;12.134;2022-12-29T11:34:35;543.20;;;0.20;;
17710;SDS011;8975;57.718;12.134;2022-12-29T11:37:14;544.38;;;0.20;;
17710;SDS011;8975;57.718;12.134;2022-12-29T11:39:50;543.10;;;0.20;;
17710;SDS011;8975;57.718;12.134;2022-12-29T11:42:20;542.83;;;0.20;;
17710;SDS011;8975;57.718;12.134;2022-12-29T11:44:54;544.33;;;0.20;;
17710;SDS011;8975;57.718;12.134;2022-12-29T11:47:21;543.50;;;0.20;;
17710;SDS011;8975;57.718;12.134;2022-12-29T11:49:52;551.47;;;0.20;;
17710;SDS011;8975;57.718;12.134;2022-12-29T11:52:22;547.65;;;0.25;;
17710;SDS011;8975;57.718;12.134;2022-12-29T11:54:50;543.20;;;0.20;;
17710;SDS011;8975;57.718;12.134;2022-12-29T11:57:17;542.97;;;0.20;;
17710;SDS011;8975;57.718;12.134;2022-12-29T11:59:53;545.00;;;0.20;;
17710;SDS011;8975;57.718;12.134;2022-12-29T12:04:59;545.67;;;0.20;;
17710;SDS011;8975;57.718;12.134;2022-12-29T12:07:37;545.05;;;0.20;;
17710;SDS011;8975;57.718;12.134;2022-12-29T12:10:06;548.65;;;0.20;;
17710;SDS011;8975;57.718;12.134;2022-12-29T12:15:20;541.22;;;0.20;;
17710;SDS011;8975;57.718;12.134;2022-12-29T12:17:53;545.78;;;0.20;;
17710;SDS011;8975;57.718;12.134;2022-12-29T12:23:07;541.65;;;0.20;;
17710;SDS011;8975;57.718;12.134;2022-12-29T12:25:40;544.45;;;0.20;;
17710;SDS011;8975;57.718;12.134;2022-12-29T12:28:20;543.42;;;0.20;;
17710;SDS011;8975;57.718;12.134;2022-12-29T12:30:48;545.10;;;0.20;;
17710;SDS011;8975;57.718;12.134;2022-12-29T12:35:44;545.27;;;0.20;;
17710;SDS011;8975;57.718;12.134;2022-12-29T13:00:17;546.13;;;0.20;;
17710;SDS011;8975;57.718;12.134;2022-12-29T13:05:19;542.35;;;0.20;;
17710;SDS011;8975;57.718;12.134;2022-12-29T13:08:21;541.47;;;0.20;;
17710;SDS011;8975;57.718;12.134;2022-12-29T13:19:38;542.88;;;0.20;;
17710;SDS011;8975;57.718;12.134;2022-12-29T13:30:13;544.72;;;0.20;;
17710;SDS011;8975;57.718;12.134;2022-12-29T13:35:51;544.50;;;0.20;;
17710;SDS011;8975;57.718;12.134;2022-12-29T13:40:49;542.72;;;0.20;;
17710;SDS011;8975;57.718;12.134;2022-12-29T13:43:18;543.70;;;0.20;;
17710;SDS011;8975;57.718;12.134;2022-12-29T13:45:55;542.60;;;0.20;;
17710;SDS011;8975;57.718;12.134;2022-12-29T13:49:07;541.50;;;0.20;;
17710;SDS011;8975;57.718;12.134;2022-12-29T13:51:18;545.22;;;0.20;;
17710;SDS011;8975;57.718;12.134;2022-12-29T13:53:59;544.03;;;0.20;;
17710;SDS011;8975;57.718;12.134;2022-12-29T13:56:38;538.25;;;0.20;;
17710;SDS011;8975;57.718;12.134;2022-12-29T14:05:04;538.63;;;0.20;;
17710;SDS011;8975;57.718;12.134;2022-12-29T14:08:00;539.95;;;0.20;;
17710;SDS011;8975;57.718;12.134;2022-12-29T14:10:29;538.45;;;0.20;;
17710;SDS011;8975;57.718;12.134;2022-12-29T14:15:42;539.00;;;0.20;;
17710;SDS011;8975;57.718;12.134;2022-12-29T14:18:17;540.15;;;0.20;;
17710;SDS011;8975;57.718;12.134;2022-12-29T14:20:52;538.23;;;0.20;;
17710;SDS011;8975;57.718;12.134;2022-12-29T14:25:59;538.03;;;0.20;;
17710;SDS011;8975;57.718;12.134;2022-12-29T14:36:34;537.07;;;0.20;;
17710;SDS011;8975;57.718;12.134;2022-12-29T14:39:04;536.80;;;0.20;;
17710;SDS011;8975;57.718;12.134;2022-12-29T14:42:05;539.63;;;0.20;;
17710;SDS011;8975;57.718;12.134;2022-12-29T14:44:31;535.63;;;0.20;;
17710;SDS011;8975;57.718;12.134;2022-12-29T14:46:58;536.25;;;0.20;;
17710;SDS011;8975;57.718;12.134;2022-12-29T14:49:31;537.72;;;0.20;;
17710;SDS011;8975;57.718;12.134;2022-12-29T14:57:48;537.95;;;0.20;;
17710;SDS011;8975;57.718;12.134;2022-12-29T15:00:23;537.90;;;0.20;;
17710;SDS011;8975;57.718;12.134;2022-12-29T15:03:01;533.70;;;0.20;;
17710;SDS011;8975;57.718;12.134;2022-12-29T15:08:37;538.30;;;0.20;;
17710;SDS011;8975;57.718;12.134;2022-12-29T15:11:22;533.17;;;0.20;;
17710;SDS011;8975;57.718;12.134;2022-12-29T15:13:49;535.95;;;0.20;;
17710;SDS011;8975;57.718;12.134;2022-12-29T15:16:29;538.45;;;0.20;;
17710;SDS011;8975;57.718;12.134;2022-12-29T15:18:56;538.28;;;0.20;;
17710;SDS011;8975;57.718;12.134;2022-12-29T15:21:24;536.38;;;0.20;;
17710;SDS011;8975;57.718;12.134;2022-12-29T15:23:51;537.63;;;0.20;;
17710;SDS011;8975;57.718;12.134;2022-12-29T15:26:17;535.08;;;0.20;;
17710;SDS011;8975;57.718;12.134;2022-12-29T15:28:47;542.97;;;0.20;;
17710;SDS011;8975;57.718;12.134;2022-12-29T15:31:21;540.67;;;0.20;;
17710;SDS011;8975;57.718;12.134;2022-12-29T15:33:52;538.37;;;0.20;;
17710;SDS011;8975;57.718;12.134;2022-12-29T15:36:21;535.53;;;0.20;;
17710;SDS011;8975;57.718;12.134;2022-12-29T15:38:54;535.45;;;0.20;;
17710;SDS011;8975;57.718;12.134;2022-12-29T15:46:42;531.10;;;0.20;;
17710;SDS011;8975;57.718;12.134;2022-12-29T15:49:08;532.63;;;0.20;;
17710;SDS011;8975;57.718;12.134;2022-12-29T15:51:37;530.80;;;0.20;;
17710;SDS011;8975;57.718;12.134;2022-12-29T15:54:04;531.90;;;0.20;;
17710;SDS011;8975;57.718;12.134;2022-12-29T15:56:30;533.15;;;0.20;;
17710;SDS011;8975;57.718;12.134;2022-12-29T15:58:57;531.60;;;0.20;;
17710;SDS011;8975;57.718;12.134;2022-12-29T16:01:28;532.92;;;0.20;;
17710;SDS011;8975;57.718;12.134;2022-12-29T16:04:00;532.55;;;0.20;;
17710;SDS011;8975;57.718;12.134;2022-12-29T16:06:35;532.33;;;0.20;;
17710;SDS011;8975;57.718;12.134;2022-12-29T16:09:06;533.35;;;0.20;;
17710;SDS011;8975;57.718;12.134;2022-12-29T16:11:40;531.30;;;0.20;;
17710;SDS011;8975;57.718;12.134;2022-12-29T16:14:19;535.72;;;0.20;;
17710;SDS011;8975;57.718;12.134;2022-12-29T16:16:49;533.97;;;0.20;;
17710;SDS011;8975;57.718;12.134;2022-12-29T16:19:18;534.53;;;0.20;;
17710;SDS011;8975;57.718;12.134;2022-12-29T16:21:44;533.33;;;0.20;;
17710;SDS011;8975;57.718;12.134;2022-12-29T16:24:21;534.70;;;0.20;;
17710;SDS011;8975;57.718;12.134;2022-12-29T16:29:46;535.38;;;0.20;;
17710;SDS011;8975;57.718;12.134;2022-12-29T16:32:22;533.75;;;0.20;;
17710;SDS011;8975;57.718;12.134;2022-12-29T16:38:21;535.53;;;0.20;;
17710;SDS011;8975;57.718;12.134;2022-12-29T16:40:54;538.45;;;0.20;;
17710;SDS011;8975;57.718;12.134;2022-12-29T16:43:25;539.13;;;0.20;;
17710;SDS011;8975;57.718;12.134;2022-12-29T16:48:18;537.63;;;0.20;;
17710;SDS011;8975;57.718;12.134;2022-12-29T16:50:46;535.60;;;0.20;;
17710;SDS011;8975;57.718;12.134;2022-12-29T16:53:27;543.38;;;0.20;;
17710;SDS011;8975;57.718;12.134;2022-12-29T16:55:55;535.28;;;0.20;;
17710;SDS011;8975;57.718;12.134;2022-12-29T16:58:27;535.47;;;0.20;;
17710;SDS011;8975;57.718;12.134;2022-12-29T17:00:56;538.13;;;0.20;;
17710;SDS011;8975;57.718;12.134;2022-12-29T17:03:26;538.13;;;0.20;;
17710;SDS011;8975;57.718;12.134;2022-12-29T17:05:58;531.60;;;0.20;;
17710;SDS011;8975;57.718;12.134;2022-12-29T17:08:24;535.00;;;0.20;;
17710;SDS011;8975;57.718;12.134;2022-12-29T17:10:50;536.83;;;0.20;;
17710;SDS011;8975;57.718;12.134;2022-12-29T17:13:36;537.67;;;0.20;;
17710;SDS011;8975;57.718;12.134;2022-12-29T17:16:03;537.72;;;0.20;;
17710;SDS011;8975;57.718;12.134;2022-12-29T17:18:32;538.58;;;0.20;;
17710;SDS011;8975;57.718;12.134;2022-12-29T17:20:58;538.95;;;0.20;;
17710;SDS011;8975;57.718;12.134;2022-12-29T17:23:26;538.07;;;0.20;;
17710;SDS011;8975;57.718;12.134;2022-12-29T17:25:53;535.33;;;0.20;;